sensor_id;sensor_type;location;lat;lon;timestamp;P1;durP1;ratioP1;P2;durP2;ratioP2
73642;SDS011;61938;48.652;9.292;2023-04-15T00:00:54;17.50;;;6.60;;
73642;SDS011;61938;48.652;9.292;2023-04-15T00:03:19;11.25;;;6.22;;
73642;SDS011;61938;48.652;9.292;2023-04-15T00:05:45;14.98;;;6.60;;
73642;SDS011;61938;48.652;9.292;2023-04-15T00:08:10;12.25;;;6.53;;
73642;SDS011;61938;48.652;9.292;2023-04-15T00:10:36;19.58;;;7.47;;
73642;SDS011;61938;48.652;9.292;2023-04-15T00:13:02;12.85;;;6.35;;
73642;SDS011;61938;48.652;9.292;2023-04-15T00:15:28;19.00;;;7.28;;
73642;SDS011;61938;48.652;9.292;2023-04-15T00:17:54;13.93;;;6.00;;
73642;SDS011;61938;48.652;9.292;2023-04-15T00:20:19;12.82;;;6.05;;
73642;SDS011;61938;48.652;9.292;2023-04-15T00:22:45;14.70;;;5.65;;
73642;SDS011;61938;48.652;9.292;2023-04-15T00:25:11;16.15;;;5.90;;
73642;SDS011;61938;48.652;9.292;2023-04-15T00:27:37;13.35;;;5.20;;
73642;SDS011;61938;48.652;9.292;2023-04-15T00:30:02;10.85;;;5.85;;
73642;SDS011;61938;48.652;9.292;2023-04-15T00:32:29;14.05;;;5.28;;
73642;SDS011;61938;48.652;9.292;2023-04-15T00:34:55;10.73;;;4.85;;
73642;SDS011;61938;48.652;9.292;2023-04-15T00:37:20;17.23;;;5.57;;
73642;SDS011;61938;48.652;9.292;2023-04-15T00:39:46;11.65;;;5.28;;
73642;SDS011;61938;48.652;9.292;2023-04-15T00:42:12;9.65;;;4.63;;
73642;SDS011;61938;48.652;9.292;2023-04-15T00:44:38;13.32;;;4.88;;
73642;SDS011;61938;48.652;9.292;2023-04-15T00:47:03;10.98;;;5.43;;
73642;SDS011;61938;48.652;9.292;2023-04-15T00:49:30;14.57;;;5.30;;
73642;SDS011;61938;48.652;9.292;2023-04-15T00:51:56;10.50;;;4.65;;
73642;SDS011;61938;48.652;9.292;2023-04-15T00:54:21;12.27;;;4.38;;
73642;SDS011;61938;48.652;9.292;2023-04-15T00:56:47;9.90;;;4.93;;
73642;SDS011;61938;48.652;9.292;2023-04-15T00:59:13;13.23;;;5.20;;
73642;SDS011;61938;48.652;9.292;2023-04-15T01:01:39;10.25;;;4.82;;
73642;SDS011;61938;48.652;9.292;2023-04-15T01:04:05;11.27;;;4.88;;
73642;SDS011;61938;48.652;9.292;2023-04-15T01:06:31;11.43;;;4.82;;
73642;SDS011;61938;48.652;9.292;2023-04-15T01:08:57;9.13;;;4.50;;
73642;SDS011;61938;48.652;9.292;2023-04-15T01:11:24;18.52;;;5.13;;
73642;SDS011;61938;48.652;9.292;2023-04-15T01:13:50;15.02;;;4.88;;
73642;SDS011;61938;48.652;9.292;2023-04-15T01:16:17;14.52;;;5.53;;
73642;SDS011;61938;48.652;9.292;2023-04-15T01:18:43;18.38;;;5.88;;
73642;SDS011;61938;48.652;9.292;2023-04-15T01:21:09;21.80;;;6.93;;
73642;SDS011;61938;48.652;9.292;2023-04-15T01:23:35;22.23;;;7.25;;
73642;SDS011;61938;48.652;9.292;2023-04-15T01:26:03;20.63;;;7.88;;
73642;SDS011;61938;48.652;9.292;2023-04-15T01:28:32;23.02;;;8.38;;
73642;SDS011;61938;48.652;9.292;2023-04-15T01:31:11;18.80;;;7.82;;
73642;SDS011;61938;48.652;9.292;2023-04-15T01:33:38;22.33;;;7.40;;
73642;SDS011;61938;48.652;9.292;2023-04-15T01:36:05;24.92;;;8.55;;
73642;SDS011;61938;48.652;9.292;2023-04-15T01:38:35;19.80;;;8.48;;
73642;SDS011;61938;48.652;9.292;2023-04-15T01:41:01;28.52;;;9.50;;
73642;SDS011;61938;48.652;9.292;2023-04-15T01:43:28;23.85;;;8.82;;
73642;SDS011;61938;48.652;9.292;2023-04-15T01:45:54;24.17;;;10.00;;
73642;SDS011;61938;48.652;9.292;2023-04-15T01:48:20;30.42;;;10.45;;
73642;SDS011;61938;48.652;9.292;2023-04-15T01:50:46;47.92;;;15.52;;
73642;SDS011;61938;48.652;9.292;2023-04-15T01:53:12;42.50;;;15.13;;
73642;SDS011;61938;48.652;9.292;2023-04-15T01:55:38;66.28;;;21.38;;
73642;SDS011;61938;48.652;9.292;2023-04-15T01:58:03;58.13;;;21.10;;
73642;SDS011;61938;48.652;9.292;2023-04-15T02:00:29;69.10;;;23.70;;
73642;SDS011;61938;48.652;9.292;2023-04-15T02:02:56;78.50;;;27.90;;
73642;SDS011;61938;48.652;9.292;2023-04-15T02:05:23;76.60;;;27.30;;
73642;SDS011;61938;48.652;9.292;2023-04-15T02:07:49;78.88;;;27.50;;
73642;SDS011;61938;48.652;9.292;2023-04-15T02:10:15;98.70;;;29.50;;
73642;SDS011;61938;48.652;9.292;2023-04-15T02:12:41;81.20;;;29.05;;
73642;SDS011;61938;48.652;9.292;2023-04-15T02:15:07;75.18;;;28.42;;
73642;SDS011;61938;48.652;9.292;2023-04-15T02:17:33;85.32;;;29.33;;
73642;SDS011;61938;48.652;9.292;2023-04-15T02:19:59;91.45;;;31.90;;
73642;SDS011;61938;48.652;9.292;2023-04-15T02:22:25;94.63;;;31.73;;
73642;SDS011;61938;48.652;9.292;2023-04-15T02:24:51;95.60;;;32.97;;
73642;SDS011;61938;48.652;9.292;2023-04-15T02:27:16;90.68;;;32.15;;
73642;SDS011;61938;48.652;9.292;2023-04-15T02:29:45;101.68;;;34.10;;
73642;SDS011;61938;48.652;9.292;2023-04-15T02:32:11;96.75;;;33.28;;
73642;SDS011;61938;48.652;9.292;2023-04-15T02:34:40;96.07;;;34.47;;
73642;SDS011;61938;48.652;9.292;2023-04-15T02:37:10;100.32;;;36.17;;
73642;SDS011;61938;48.652;9.292;2023-04-15T02:39:37;111.53;;;36.92;;
73642;SDS011;61938;48.652;9.292;2023-04-15T02:42:03;98.30;;;32.78;;
73642;SDS011;61938;48.652;9.292;2023-04-15T02:44:30;79.22;;;30.50;;
73642;SDS011;61938;48.652;9.292;2023-04-15T02:46:56;79.22;;;28.35;;
73642;SDS011;61938;48.652;9.292;2023-04-15T02:49:22;73.75;;;25.98;;
73642;SDS011;61938;48.652;9.292;2023-04-15T02:51:49;69.80;;;21.98;;
73642;SDS011;61938;48.652;9.292;2023-04-15T02:54:18;65.00;;;22.17;;
73642;SDS011;61938;48.652;9.292;2023-04-15T02:56:44;59.38;;;21.98;;
73642;SDS011;61938;48.652;9.292;2023-04-15T02:59:11;57.88;;;22.88;;
73642;SDS011;61938;48.652;9.292;2023-04-15T03:01:37;62.55;;;21.90;;
73642;SDS011;61938;48.652;9.292;2023-04-15T03:04:02;55.33;;;21.92;;
73642;SDS011;61938;48.652;9.292;2023-04-15T03:06:28;67.45;;;23.02;;
73642;SDS011;61938;48.652;9.292;2023-04-15T03:08:53;57.53;;;21.67;;
73642;SDS011;61938;48.652;9.292;2023-04-15T03:11:19;58.20;;;21.05;;
73642;SDS011;61938;48.652;9.292;2023-04-15T03:13:45;63.17;;;20.60;;
73642;SDS011;61938;48.652;9.292;2023-04-15T03:16:11;46.13;;;16.88;;
73642;SDS011;61938;48.652;9.292;2023-04-15T03:18:37;48.50;;;16.48;;
73642;SDS011;61938;48.652;9.292;2023-04-15T03:21:02;43.63;;;14.30;;
73642;SDS011;61938;48.652;9.292;2023-04-15T03:23:29;39.05;;;13.65;;
73642;SDS011;61938;48.652;9.292;2023-04-15T03:25:55;39.45;;;11.43;;
73642;SDS011;61938;48.652;9.292;2023-04-15T03:28:22;24.60;;;9.73;;
73642;SDS011;61938;48.652;9.292;2023-04-15T03:30:47;29.73;;;9.68;;
73642;SDS011;61938;48.652;9.292;2023-04-15T03:33:13;24.05;;;8.57;;
73642;SDS011;61938;48.652;9.292;2023-04-15T03:35:38;18.90;;;7.22;;
73642;SDS011;61938;48.652;9.292;2023-04-15T03:38:04;20.42;;;7.78;;
73642;SDS011;61938;48.652;9.292;2023-04-15T03:40:30;22.42;;;7.45;;
73642;SDS011;61938;48.652;9.292;2023-04-15T03:42:56;14.88;;;6.50;;
73642;SDS011;61938;48.652;9.292;2023-04-15T03:45:21;19.85;;;6.97;;
73642;SDS011;61938;48.652;9.292;2023-04-15T03:47:46;15.35;;;6.32;;
73642;SDS011;61938;48.652;9.292;2023-04-15T03:50:13;19.45;;;7.07;;
73642;SDS011;61938;48.652;9.292;2023-04-15T03:52:39;18.27;;;7.72;;
73642;SDS011;61938;48.652;9.292;2023-04-15T03:55:05;15.13;;;6.60;;
73642;SDS011;61938;48.652;9.292;2023-04-15T03:57:30;17.38;;;6.22;;
73642;SDS011;61938;48.652;9.292;2023-04-15T03:59:56;17.05;;;6.38;;
73642;SDS011;61938;48.652;9.292;2023-04-15T04:02:21;16.65;;;6.40;;
73642;SDS011;61938;48.652;9.292;2023-04-15T04:04:47;15.07;;;5.60;;
73642;SDS011;61938;48.652;9.292;2023-04-15T04:07:16;19.77;;;7.10;;
73642;SDS011;61938;48.652;9.292;2023-04-15T04:09:42;17.67;;;5.93;;
73642;SDS011;61938;48.652;9.292;2023-04-15T04:12:08;12.43;;;5.45;;
73642;SDS011;61938;48.652;9.292;2023-04-15T04:14:33;13.20;;;6.57;;
73642;SDS011;61938;48.652;9.292;2023-04-15T04:16:59;12.98;;;6.00;;
73642;SDS011;61938;48.652;9.292;2023-04-15T04:19:24;13.13;;;6.10;;
73642;SDS011;61938;48.652;9.292;2023-04-15T04:21:50;18.42;;;6.38;;
73642;SDS011;61938;48.652;9.292;2023-04-15T04:24:16;12.98;;;5.70;;
73642;SDS011;61938;48.652;9.292;2023-04-15T04:26:41;17.95;;;6.53;;
73642;SDS011;61938;48.652;9.292;2023-04-15T04:29:07;11.50;;;6.07;;
73642;SDS011;61938;48.652;9.292;2023-04-15T04:31:33;12.57;;;6.30;;
73642;SDS011;61938;48.652;9.292;2023-04-15T04:33:58;13.93;;;5.50;;
73642;SDS011;61938;48.652;9.292;2023-04-15T04:36:24;16.48;;;5.82;;
73642;SDS011;61938;48.652;9.292;2023-04-15T04:38:50;14.32;;;5.95;;
73642;SDS011;61938;48.652;9.292;2023-04-15T04:41:16;13.80;;;6.22;;
73642;SDS011;61938;48.652;9.292;2023-04-15T04:43:42;12.70;;;5.90;;
73642;SDS011;61938;48.652;9.292;2023-04-15T04:46:07;14.82;;;6.47;;
73642;SDS011;61938;48.652;9.292;2023-04-15T04:48:33;14.32;;;5.80;;
73642;SDS011;61938;48.652;9.292;2023-04-15T04:50:58;12.93;;;5.90;;
73642;SDS011;61938;48.652;9.292;2023-04-15T04:53:24;11.98;;;5.68;;
73642;SDS011;61938;48.652;9.292;2023-04-15T04:55:50;14.02;;;6.70;;
73642;SDS011;61938;48.652;9.292;2023-04-15T04:58:16;11.30;;;5.65;;
73642;SDS011;61938;48.652;9.292;2023-04-15T05:00:41;13.60;;;6.32;;
73642;SDS011;61938;48.652;9.292;2023-04-15T05:03:07;20.30;;;6.55;;
73642;SDS011;61938;48.652;9.292;2023-04-15T05:05:32;17.08;;;6.28;;
73642;SDS011;61938;48.652;9.292;2023-04-15T05:07:59;19.23;;;6.07;;
73642;SDS011;61938;48.652;9.292;2023-04-15T05:10:25;16.13;;;6.65;;
73642;SDS011;61938;48.652;9.292;2023-04-15T05:12:50;16.48;;;6.15;;
73642;SDS011;61938;48.652;9.292;2023-04-15T05:15:16;14.57;;;6.40;;
73642;SDS011;61938;48.652;9.292;2023-04-15T05:17:42;14.45;;;6.60;;
73642;SDS011;61938;48.652;9.292;2023-04-15T05:20:07;16.40;;;6.32;;
73642;SDS011;61938;48.652;9.292;2023-04-15T05:22:33;12.38;;;5.78;;
73642;SDS011;61938;48.652;9.292;2023-04-15T05:24:59;12.57;;;6.05;;
73642;SDS011;61938;48.652;9.292;2023-04-15T05:27:24;17.00;;;5.53;;
73642;SDS011;61938;48.652;9.292;2023-04-15T05:29:50;17.88;;;6.80;;
73642;SDS011;61938;48.652;9.292;2023-04-15T05:32:16;11.15;;;5.65;;
73642;SDS011;61938;48.652;9.292;2023-04-15T05:34:41;14.88;;;5.68;;
73642;SDS011;61938;48.652;9.292;2023-04-15T05:37:07;16.98;;;6.68;;
73642;SDS011;61938;48.652;9.292;2023-04-15T05:39:32;11.55;;;5.35;;
73642;SDS011;61938;48.652;9.292;2023-04-15T05:41:58;16.05;;;5.72;;
73642;SDS011;61938;48.652;9.292;2023-04-15T05:44:24;17.73;;;5.93;;
73642;SDS011;61938;48.652;9.292;2023-04-15T05:46:50;12.48;;;6.93;;
73642;SDS011;61938;48.652;9.292;2023-04-15T05:49:16;14.88;;;6.35;;
73642;SDS011;61938;48.652;9.292;2023-04-15T05:51:41;12.45;;;5.45;;
73642;SDS011;61938;48.652;9.292;2023-04-15T05:54:07;17.90;;;6.35;;
73642;SDS011;61938;48.652;9.292;2023-04-15T05:56:32;13.05;;;6.13;;
73642;SDS011;61938;48.652;9.292;2023-04-15T05:58:58;15.18;;;6.00;;
73642;SDS011;61938;48.652;9.292;2023-04-15T06:01:23;13.85;;;5.45;;
73642;SDS011;61938;48.652;9.292;2023-04-15T06:03:50;10.82;;;5.57;;
73642;SDS011;61938;48.652;9.292;2023-04-15T06:06:15;19.02;;;6.05;;
73642;SDS011;61938;48.652;9.292;2023-04-15T06:08:41;12.20;;;6.03;;
73642;SDS011;61938;48.652;9.292;2023-04-15T06:11:06;11.57;;;5.70;;
73642;SDS011;61938;48.652;9.292;2023-04-15T06:13:32;19.30;;;7.30;;
73642;SDS011;61938;48.652;9.292;2023-04-15T06:15:57;18.67;;;7.07;;
73642;SDS011;61938;48.652;9.292;2023-04-15T06:18:23;13.10;;;6.18;;
73642;SDS011;61938;48.652;9.292;2023-04-15T06:20:49;18.23;;;6.70;;
73642;SDS011;61938;48.652;9.292;2023-04-15T06:23:15;13.38;;;5.88;;
73642;SDS011;61938;48.652;9.292;2023-04-15T06:25:41;11.70;;;6.18;;
73642;SDS011;61938;48.652;9.292;2023-04-15T06:28:06;17.63;;;6.07;;
73642;SDS011;61938;48.652;9.292;2023-04-15T06:30:32;15.88;;;5.97;;
73642;SDS011;61938;48.652;9.292;2023-04-15T06:32:57;10.50;;;5.63;;
73642;SDS011;61938;48.652;9.292;2023-04-15T06:35:23;12.57;;;5.63;;
73642;SDS011;61938;48.652;9.292;2023-04-15T06:37:48;13.05;;;5.80;;
73642;SDS011;61938;48.652;9.292;2023-04-15T06:40:14;14.07;;;5.45;;
73642;SDS011;61938;48.652;9.292;2023-04-15T06:42:39;18.73;;;6.13;;
73642;SDS011;61938;48.652;9.292;2023-04-15T06:45:05;13.48;;;6.15;;
73642;SDS011;61938;48.652;9.292;2023-04-15T06:47:32;11.80;;;5.65;;
73642;SDS011;61938;48.652;9.292;2023-04-15T06:49:58;12.82;;;5.70;;
73642;SDS011;61938;48.652;9.292;2023-04-15T06:52:23;10.90;;;5.75;;
73642;SDS011;61938;48.652;9.292;2023-04-15T06:54:49;15.18;;;5.78;;
73642;SDS011;61938;48.652;9.292;2023-04-15T06:57:14;14.90;;;6.30;;
73642;SDS011;61938;48.652;9.292;2023-04-15T06:59:40;12.27;;;5.45;;
73642;SDS011;61938;48.652;9.292;2023-04-15T07:02:06;14.63;;;5.65;;
73642;SDS011;61938;48.652;9.292;2023-04-15T07:04:35;14.82;;;5.88;;
73642;SDS011;61938;48.652;9.292;2023-04-15T07:07:00;17.70;;;5.53;;
73642;SDS011;61938;48.652;9.292;2023-04-15T07:09:26;10.85;;;5.35;;
73642;SDS011;61938;48.652;9.292;2023-04-15T07:11:52;11.98;;;5.72;;
73642;SDS011;61938;48.652;9.292;2023-04-15T07:14:17;13.45;;;5.53;;
73642;SDS011;61938;48.652;9.292;2023-04-15T07:16:43;16.33;;;6.38;;
73642;SDS011;61938;48.652;9.292;2023-04-15T07:19:08;15.77;;;6.28;;
73642;SDS011;61938;48.652;9.292;2023-04-15T07:21:34;12.43;;;6.00;;
73642;SDS011;61938;48.652;9.292;2023-04-15T07:23:59;14.35;;;5.97;;
73642;SDS011;61938;48.652;9.292;2023-04-15T07:26:25;12.68;;;5.10;;
73642;SDS011;61938;48.652;9.292;2023-04-15T07:28:50;10.77;;;5.47;;
73642;SDS011;61938;48.652;9.292;2023-04-15T07:31:16;13.05;;;5.55;;
73642;SDS011;61938;48.652;9.292;2023-04-15T07:33:41;12.05;;;5.50;;
73642;SDS011;61938;48.652;9.292;2023-04-15T07:36:07;11.10;;;5.95;;
73642;SDS011;61938;48.652;9.292;2023-04-15T07:38:33;12.98;;;5.35;;
73642;SDS011;61938;48.652;9.292;2023-04-15T07:40:58;8.48;;;5.05;;
73642;SDS011;61938;48.652;9.292;2023-04-15T07:43:24;12.27;;;5.80;;
73642;SDS011;61938;48.652;9.292;2023-04-15T07:45:49;10.93;;;5.03;;
73642;SDS011;61938;48.652;9.292;2023-04-15T07:48:15;14.63;;;6.05;;
73642;SDS011;61938;48.652;9.292;2023-04-15T07:50:40;16.00;;;6.28;;
73642;SDS011;61938;48.652;9.292;2023-04-15T07:53:06;12.48;;;5.47;;
73642;SDS011;61938;48.652;9.292;2023-04-15T07:55:32;12.50;;;5.65;;
73642;SDS011;61938;48.652;9.292;2023-04-15T07:57:57;13.20;;;5.80;;
73642;SDS011;61938;48.652;9.292;2023-04-15T08:00:23;11.65;;;5.50;;
73642;SDS011;61938;48.652;9.292;2023-04-15T08:02:48;13.52;;;5.50;;
73642;SDS011;61938;48.652;9.292;2023-04-15T08:05:16;12.77;;;5.30;;
73642;SDS011;61938;48.652;9.292;2023-04-15T08:07:42;14.60;;;5.13;;
73642;SDS011;61938;48.652;9.292;2023-04-15T08:10:07;13.77;;;4.70;;
73642;SDS011;61938;48.652;9.292;2023-04-15T08:12:33;16.40;;;4.50;;
73642;SDS011;61938;48.652;9.292;2023-04-15T08:14:59;11.82;;;5.45;;
73642;SDS011;61938;48.652;9.292;2023-04-15T08:17:25;12.43;;;5.47;;
73642;SDS011;61938;48.652;9.292;2023-04-15T08:19:52;9.98;;;5.30;;
73642;SDS011;61938;48.652;9.292;2023-04-15T08:22:18;12.00;;;5.50;;
73642;SDS011;61938;48.652;9.292;2023-04-15T08:24:43;9.77;;;4.53;;
73642;SDS011;61938;48.652;9.292;2023-04-15T08:27:09;10.50;;;4.50;;
73642;SDS011;61938;48.652;9.292;2023-04-15T08:29:35;9.07;;;4.78;;
73642;SDS011;61938;48.652;9.292;2023-04-15T08:32:00;12.45;;;5.47;;
73642;SDS011;61938;48.652;9.292;2023-04-15T08:34:26;11.50;;;5.47;;
73642;SDS011;61938;48.652;9.292;2023-04-15T08:36:52;11.18;;;4.72;;
73642;SDS011;61938;48.652;9.292;2023-04-15T08:39:18;11.90;;;4.40;;
73642;SDS011;61938;48.652;9.292;2023-04-15T08:41:47;11.40;;;4.65;;
73642;SDS011;61938;48.652;9.292;2023-04-15T08:44:20;9.85;;;4.57;;
73642;SDS011;61938;48.652;9.292;2023-04-15T08:46:48;10.68;;;5.10;;
73642;SDS011;61938;48.652;9.292;2023-04-15T08:49:13;12.10;;;5.30;;
73642;SDS011;61938;48.652;9.292;2023-04-15T08:51:41;9.13;;;4.97;;
73642;SDS011;61938;48.652;9.292;2023-04-15T08:54:07;9.45;;;4.75;;
73642;SDS011;61938;48.652;9.292;2023-04-15T08:56:34;11.45;;;5.28;;
73642;SDS011;61938;48.652;9.292;2023-04-15T08:59:01;11.95;;;4.45;;
73642;SDS011;61938;48.652;9.292;2023-04-15T09:01:27;9.70;;;4.38;;
73642;SDS011;61938;48.652;9.292;2023-04-15T09:03:53;12.68;;;4.88;;
73642;SDS011;61938;48.652;9.292;2023-04-15T09:06:19;14.60;;;5.20;;
73642;SDS011;61938;48.652;9.292;2023-04-15T09:08:45;10.88;;;5.00;;
73642;SDS011;61938;48.652;9.292;2023-04-15T09:11:11;10.35;;;4.22;;
73642;SDS011;61938;48.652;9.292;2023-04-15T09:13:37;13.50;;;5.28;;
73642;SDS011;61938;48.652;9.292;2023-04-15T09:16:06;9.35;;;4.70;;
73642;SDS011;61938;48.652;9.292;2023-04-15T09:18:33;12.35;;;5.25;;
73642;SDS011;61938;48.652;9.292;2023-04-15T09:21:10;12.13;;;5.22;;
73642;SDS011;61938;48.652;9.292;2023-04-15T09:23:37;14.30;;;5.22;;
73642;SDS011;61938;48.652;9.292;2023-04-15T09:26:05;14.10;;;5.97;;
73642;SDS011;61938;48.652;9.292;2023-04-15T09:28:31;13.25;;;4.78;;
73642;SDS011;61938;48.652;9.292;2023-04-15T09:30:57;13.60;;;5.47;;
73642;SDS011;61938;48.652;9.292;2023-04-15T09:33:24;12.35;;;5.82;;
73642;SDS011;61938;48.652;9.292;2023-04-15T09:38:24;13.82;;;4.72;;
73642;SDS011;61938;48.652;9.292;2023-04-15T09:40:50;14.07;;;5.43;;
73642;SDS011;61938;48.652;9.292;2023-04-15T09:43:15;5.57;;;3.35;;
73642;SDS011;61938;48.652;9.292;2023-04-15T09:45:51;9.27;;;3.13;;
73642;SDS011;61938;48.652;9.292;2023-04-15T09:48:18;6.78;;;3.47;;
73642;SDS011;61938;48.652;9.292;2023-04-15T09:50:51;11.23;;;4.25;;
73642;SDS011;61938;48.652;9.292;2023-04-15T09:53:22;12.45;;;3.88;;
73642;SDS011;61938;48.652;9.292;2023-04-15T09:55:55;17.63;;;3.65;;
73642;SDS011;61938;48.652;9.292;2023-04-15T09:58:32;6.85;;;3.95;;
73642;SDS011;61938;48.652;9.292;2023-04-15T10:00:59;10.85;;;4.13;;
73642;SDS011;61938;48.652;9.292;2023-04-15T10:03:27;5.10;;;2.72;;
73642;SDS011;61938;48.652;9.292;2023-04-15T10:05:55;8.77;;;2.80;;
73642;SDS011;61938;48.652;9.292;2023-04-15T10:08:23;7.05;;;2.75;;
73642;SDS011;61938;48.652;9.292;2023-04-15T10:10:50;6.35;;;3.00;;
73642;SDS011;61938;48.652;9.292;2023-04-15T10:13:25;11.00;;;3.03;;
73642;SDS011;61938;48.652;9.292;2023-04-15T10:15:57;13.18;;;4.50;;
73642;SDS011;61938;48.652;9.292;2023-04-15T10:18:25;5.60;;;3.22;;
73642;SDS011;61938;48.652;9.292;2023-04-15T10:20:52;10.40;;;3.72;;
73642;SDS011;61938;48.652;9.292;2023-04-15T10:23:18;7.53;;;3.55;;
73642;SDS011;61938;48.652;9.292;2023-04-15T10:25:45;12.90;;;3.70;;
73642;SDS011;61938;48.652;9.292;2023-04-15T10:28:11;8.80;;;3.45;;
73642;SDS011;61938;48.652;9.292;2023-04-15T10:30:38;6.88;;;3.78;;
73642;SDS011;61938;48.652;9.292;2023-04-15T10:33:04;14.85;;;4.55;;
73642;SDS011;61938;48.652;9.292;2023-04-15T10:35:31;8.43;;;4.38;;
73642;SDS011;61938;48.652;9.292;2023-04-15T10:37:58;8.50;;;4.45;;
73642;SDS011;61938;48.652;9.292;2023-04-15T10:40:24;11.43;;;4.43;;
73642;SDS011;61938;48.652;9.292;2023-04-15T10:42:56;9.57;;;4.85;;
73642;SDS011;61938;48.652;9.292;2023-04-15T10:45:26;8.52;;;4.18;;
73642;SDS011;61938;48.652;9.292;2023-04-15T10:47:56;11.93;;;4.55;;
73642;SDS011;61938;48.652;9.292;2023-04-15T10:50:24;6.00;;;3.28;;
73642;SDS011;61938;48.652;9.292;2023-04-15T10:52:50;6.13;;;3.50;;
73642;SDS011;61938;48.652;9.292;2023-04-15T10:55:20;10.93;;;3.72;;
73642;SDS011;61938;48.652;9.292;2023-04-15T10:57:58;6.85;;;3.38;;
73642;SDS011;61938;48.652;9.292;2023-04-15T11:00:27;9.27;;;3.58;;
73642;SDS011;61938;48.652;9.292;2023-04-15T11:02:54;8.63;;;3.38;;
73642;SDS011;61938;48.652;9.292;2023-04-15T11:05:22;8.45;;;3.55;;
73642;SDS011;61938;48.652;9.292;2023-04-15T11:08:08;11.45;;;4.22;;
73642;SDS011;61938;48.652;9.292;2023-04-15T11:15:36;12.77;;;3.50;;
73642;SDS011;61938;48.652;9.292;2023-04-15T11:20:43;7.55;;;3.38;;
73642;SDS011;61938;48.652;9.292;2023-04-15T11:23:26;7.75;;;4.00;;
73642;SDS011;61938;48.652;9.292;2023-04-15T11:25:56;9.50;;;3.92;;
73642;SDS011;61938;48.652;9.292;2023-04-15T11:28:26;10.07;;;3.63;;
73642;SDS011;61938;48.652;9.292;2023-04-15T11:30:53;9.88;;;4.00;;
73642;SDS011;61938;48.652;9.292;2023-04-15T11:33:20;7.03;;;3.25;;
73642;SDS011;61938;48.652;9.292;2023-04-15T11:35:46;11.73;;;4.00;;
73642;SDS011;61938;48.652;9.292;2023-04-15T11:38:12;11.35;;;3.35;;
73642;SDS011;61938;48.652;9.292;2023-04-15T11:40:39;13.77;;;3.83;;
73642;SDS011;61938;48.652;9.292;2023-04-15T11:43:06;7.85;;;3.55;;
73642;SDS011;61938;48.652;9.292;2023-04-15T11:45:37;13.73;;;5.03;;
73642;SDS011;61938;48.652;9.292;2023-04-15T11:48:12;7.65;;;3.25;;
73642;SDS011;61938;48.652;9.292;2023-04-15T11:50:38;6.60;;;3.72;;
73642;SDS011;61938;48.652;9.292;2023-04-15T11:53:05;7.93;;;3.85;;
73642;SDS011;61938;48.652;9.292;2023-04-15T11:55:51;10.52;;;4.15;;
73642;SDS011;61938;48.652;9.292;2023-04-15T11:58:24;9.20;;;4.18;;
73642;SDS011;61938;48.652;9.292;2023-04-15T12:00:57;8.75;;;4.40;;
73642;SDS011;61938;48.652;9.292;2023-04-15T12:03:30;10.27;;;4.25;;
73642;SDS011;61938;48.652;9.292;2023-04-15T12:06:13;10.52;;;4.03;;
73642;SDS011;61938;48.652;9.292;2023-04-15T12:11:39;10.50;;;4.75;;
73642;SDS011;61938;48.652;9.292;2023-04-15T12:14:09;6.95;;;4.00;;
73642;SDS011;61938;48.652;9.292;2023-04-15T12:16:56;9.77;;;4.30;;
73642;SDS011;61938;48.652;9.292;2023-04-15T12:19:26;10.60;;;4.68;;
73642;SDS011;61938;48.652;9.292;2023-04-15T12:22:00;9.00;;;4.53;;
73642;SDS011;61938;48.652;9.292;2023-04-15T12:24:28;16.73;;;4.77;;
73642;SDS011;61938;48.652;9.292;2023-04-15T12:26:56;10.45;;;4.63;;
73642;SDS011;61938;48.652;9.292;2023-04-15T12:29:27;11.73;;;5.00;;
73642;SDS011;61938;48.652;9.292;2023-04-15T12:31:54;10.50;;;4.82;;
73642;SDS011;61938;48.652;9.292;2023-04-15T12:34:28;8.70;;;4.38;;
73642;SDS011;61938;48.652;9.292;2023-04-15T12:37:20;8.82;;;4.82;;
73642;SDS011;61938;48.652;9.292;2023-04-15T12:39:46;10.18;;;5.00;;
73642;SDS011;61938;48.652;9.292;2023-04-15T12:42:14;9.23;;;4.60;;
73642;SDS011;61938;48.652;9.292;2023-04-15T12:44:40;12.07;;;5.00;;
73642;SDS011;61938;48.652;9.292;2023-04-15T12:47:07;9.43;;;4.82;;
73642;SDS011;61938;48.652;9.292;2023-04-15T12:49:33;13.63;;;5.53;;
73642;SDS011;61938;48.652;9.292;2023-04-15T12:51:59;10.70;;;5.35;;
73642;SDS011;61938;48.652;9.292;2023-04-15T12:54:26;9.45;;;5.25;;
73642;SDS011;61938;48.652;9.292;2023-04-15T12:56:52;10.48;;;5.43;;
73642;SDS011;61938;48.652;9.292;2023-04-15T12:59:18;8.43;;;4.38;;
73642;SDS011;61938;48.652;9.292;2023-04-15T13:01:44;9.90;;;5.45;;
73642;SDS011;61938;48.652;9.292;2023-04-15T13:04:11;8.85;;;5.22;;
73642;SDS011;61938;48.652;9.292;2023-04-15T13:06:36;15.10;;;5.63;;
73642;SDS011;61938;48.652;9.292;2023-04-15T13:09:02;7.70;;;5.25;;
73642;SDS011;61938;48.652;9.292;2023-04-15T13:11:28;11.20;;;4.75;;
73642;SDS011;61938;48.652;9.292;2023-04-15T13:13:55;10.88;;;5.18;;
73642;SDS011;61938;48.652;9.292;2023-04-15T13:16:21;9.88;;;5.28;;
73642;SDS011;61938;48.652;9.292;2023-04-15T13:18:48;9.70;;;4.50;;
73642;SDS011;61938;48.652;9.292;2023-04-15T13:21:14;7.75;;;4.70;;
73642;SDS011;61938;48.652;9.292;2023-04-15T13:23:40;11.00;;;4.63;;
73642;SDS011;61938;48.652;9.292;2023-04-15T13:26:06;7.30;;;4.63;;
73642;SDS011;61938;48.652;9.292;2023-04-15T13:28:32;8.55;;;4.53;;
73642;SDS011;61938;48.652;9.292;2023-04-15T13:30:58;12.57;;;4.20;;
73642;SDS011;61938;48.652;9.292;2023-04-15T13:33:24;8.20;;;3.80;;
73642;SDS011;61938;48.652;9.292;2023-04-15T13:35:50;8.55;;;3.38;;
73642;SDS011;61938;48.652;9.292;2023-04-15T13:38:16;4.93;;;3.13;;
73642;SDS011;61938;48.652;9.292;2023-04-15T13:40:41;9.63;;;3.40;;
73642;SDS011;61938;48.652;9.292;2023-04-15T13:43:06;7.97;;;3.67;;
73642;SDS011;61938;48.652;9.292;2023-04-15T13:45:33;10.07;;;3.92;;
73642;SDS011;61938;48.652;9.292;2023-04-15T13:47:58;6.55;;;3.40;;
73642;SDS011;61938;48.652;9.292;2023-04-15T13:50:24;11.88;;;4.03;;
73642;SDS011;61938;48.652;9.292;2023-04-15T13:52:50;6.95;;;3.08;;
73642;SDS011;61938;48.652;9.292;2023-04-15T13:55:15;7.75;;;3.25;;
73642;SDS011;61938;48.652;9.292;2023-04-15T13:57:41;5.97;;;3.90;;
73642;SDS011;61938;48.652;9.292;2023-04-15T14:00:06;8.85;;;3.33;;
73642;SDS011;61938;48.652;9.292;2023-04-15T14:02:32;4.70;;;3.08;;
73642;SDS011;61938;48.652;9.292;2023-04-15T14:04:58;5.00;;;2.97;;
73642;SDS011;61938;48.652;9.292;2023-04-15T14:07:23;5.00;;;3.05;;
73642;SDS011;61938;48.652;9.292;2023-04-15T14:09:49;8.48;;;3.70;;
73642;SDS011;61938;48.652;9.292;2023-04-15T14:12:14;5.28;;;3.00;;
73642;SDS011;61938;48.652;9.292;2023-04-15T14:14:40;9.00;;;3.05;;
73642;SDS011;61938;48.652;9.292;2023-04-15T14:17:06;9.20;;;3.13;;
73642;SDS011;61938;48.652;9.292;2023-04-15T14:19:31;7.65;;;2.67;;
73642;SDS011;61938;48.652;9.292;2023-04-15T14:21:57;5.47;;;2.60;;
73642;SDS011;61938;48.652;9.292;2023-04-15T14:24:23;5.00;;;2.40;;
73642;SDS011;61938;48.652;9.292;2023-04-15T14:26:49;3.63;;;2.30;;
73642;SDS011;61938;48.652;9.292;2023-04-15T14:29:14;9.05;;;2.50;;
73642;SDS011;61938;48.652;9.292;2023-04-15T14:31:40;4.25;;;2.40;;
73642;SDS011;61938;48.652;9.292;2023-04-15T14:34:08;4.38;;;2.03;;
73642;SDS011;61938;48.652;9.292;2023-04-15T14:36:34;5.32;;;2.00;;
73642;SDS011;61938;48.652;9.292;2023-04-15T14:39:00;4.68;;;1.70;;
73642;SDS011;61938;48.652;9.292;2023-04-15T14:41:25;4.03;;;1.67;;
73642;SDS011;61938;48.652;9.292;2023-04-15T14:43:51;7.22;;;2.13;;
73642;SDS011;61938;48.652;9.292;2023-04-15T14:46:17;7.90;;;1.90;;